AAL536 KPHX-MMSD
Flight info
| Callsign | AAL536 |
|---|---|
| Flight time | 1h 36m |
| Altitude | 35000 |
| Route | STRRM1 TUS J92 DASVU DCT ENEKO ENEKO1B |
| Aircraft | B738/M-SDE2E3FGHIRWXY/LB1 |
Departure
| Time | 2026-04-22 13:42 |
|---|---|
| Airport | Phoenix Sky Harbor International Airport (KPHX) |
Arrival
| Time | 2026-04-22 15:18 |
|---|---|
| Airport | Los Cabos International Airport (MMSD) |
| Time | Latitude | Longitude | Altitude | Speed | Heading |
|---|---|---|---|---|---|
| 2026-04-22 13:18 | 33.43791 | -111.99879 | 1134 ft | 0 kts | 261° |
| 2026-04-22 13:30 | 33.43792 | -111.99872 | 1134 ft | 2 kts | 264° |
| 2026-04-22 13:30 | 33.43791 | -111.99850 | 1132 ft | 3 kts | 296° |
| 2026-04-22 13:30 | 33.43780 | -111.99834 | 1131 ft | 3 kts | 338° |
| 2026-04-22 13:31 | 33.43768 | -111.99830 | 1133 ft | 1 kts | 360° |
| 2026-04-22 13:33 | 33.43782 | -111.99830 | 1132 ft | 9 kts | 360° |
| 2026-04-22 13:33 | 33.43860 | -111.99830 | 1131 ft | 9 kts | 359° |
| 2026-04-22 13:34 | 33.43902 | -111.99870 | 1133 ft | 9 kts | 281° |
| 2026-04-22 13:34 | 33.43905 | -111.99945 | 1130 ft | 10 kts | 269° |
| 2026-04-22 13:34 | 33.43905 | -112.00048 | 1130 ft | 14 kts | 270° |
| 2026-04-22 13:34 | 33.43905 | -112.00181 | 1130 ft | 17 kts | 270° |
| 2026-04-22 13:35 | 33.43906 | -112.00319 | 1130 ft | 16 kts | 269° |
| 2026-04-22 13:35 | 33.43905 | -112.00451 | 1130 ft | 16 kts | 269° |
| 2026-04-22 13:35 | 33.43901 | -112.00576 | 1130 ft | 15 kts | 269° |
| 2026-04-22 13:35 | 33.43902 | -112.00699 | 1130 ft | 14 kts | 272° |
| 2026-04-22 13:36 | 33.43905 | -112.00816 | 1130 ft | 14 kts | 269° |
| 2026-04-22 13:36 | 33.43904 | -112.00931 | 1130 ft | 14 kts | 272° |
| 2026-04-22 13:36 | 33.43903 | -112.01041 | 1130 ft | 13 kts | 269° |
| 2026-04-22 13:36 | 33.43902 | -112.01148 | 1130 ft | 13 kts | 269° |
| 2026-04-22 13:37 | 33.43903 | -112.01251 | 1130 ft | 12 kts | 271° |
| 2026-04-22 13:37 | 33.43904 | -112.01353 | 1130 ft | 12 kts | 271° |
| 2026-04-22 13:37 | 33.43903 | -112.01453 | 1130 ft | 13 kts | 269° |
| 2026-04-22 13:37 | 33.43903 | -112.01573 | 1130 ft | 16 kts | 269° |
| 2026-04-22 13:38 | 33.43903 | -112.01719 | 1129 ft | 19 kts | 270° |
| 2026-04-22 13:38 | 33.43903 | -112.02073 | 1129 ft | 22 kts | 270° |
| 2026-04-22 13:38 | 33.43903 | -112.02253 | 1129 ft | 21 kts | 270° |
| 2026-04-22 13:39 | 33.43903 | -112.02428 | 1129 ft | 21 kts | 272° |
| 2026-04-22 13:39 | 33.43905 | -112.02597 | 1129 ft | 20 kts | 270° |
| 2026-04-22 13:39 | 33.43906 | -112.02761 | 1129 ft | 19 kts | 271° |
| 2026-04-22 13:39 | 33.43907 | -112.02906 | 1132 ft | 13 kts | 271° |
| 2026-04-22 13:40 | 33.43963 | -112.02969 | 1124 ft | 13 kts | 357° |
| 2026-04-22 13:40 | 33.43996 | -112.02971 | 1122 ft | 2 kts | 357° |
| 2026-04-22 13:40 | 33.44013 | -112.02972 | 1122 ft | 3 kts | 357° |
| 2026-04-22 13:40 | 33.44041 | -112.02973 | 1118 ft | 7 kts | 360° |
| 2026-04-22 13:41 | 33.44092 | -112.02892 | 1126 ft | 16 kts | 94° |
| 2026-04-22 13:41 | 33.44089 | -112.02699 | 1125 ft | 47 kts | 91° |
| 2026-04-22 13:41 | 33.44086 | -112.02002 | 1126 ft | 118 kts | 90° |
| 2026-04-22 13:41 | 33.44083 | -112.00773 | 1133 ft | 175 kts | 89° |
| 2026-04-22 13:42 | 33.44065 | -111.99173 | 1456 ft | 206 kts | 90° |
| 2026-04-22 13:42 | 33.44025 | -111.97373 | 1900 ft | 226 kts | 93° |
| 2026-04-22 13:42 | 33.43939 | -111.95490 | 2649 ft | 222 kts | 94° |
| 2026-04-22 13:42 | 33.43846 | -111.93659 | 3400 ft | 227 kts | 94° |
| 2026-04-22 13:43 | 33.43735 | -111.91709 | 4017 ft | 238 kts | 94° |
| 2026-04-22 13:43 | 33.43616 | -111.89737 | 4798 ft | 242 kts | 94° |
| 2026-04-22 13:43 | 33.43307 | -111.87692 | 5344 ft | 259 kts | 116° |
| 2026-04-22 13:43 | 33.42139 | -111.86025 | 5819 ft | 273 kts | 142° |
| 2026-04-22 13:44 | 33.40648 | -111.84580 | 6624 ft | 277 kts | 143° |
| 2026-04-22 13:44 | 33.39143 | -111.83108 | 7417 ft | 281 kts | 143° |
| 2026-04-22 13:44 | 33.37628 | -111.81610 | 8245 ft | 284 kts | 145° |
| 2026-04-22 13:44 | 33.35888 | -111.80547 | 9018 ft | 280 kts | 172° |
| 2026-04-22 13:45 | 33.33977 | -111.80473 | 9901 ft | 273 kts | 193° |
| 2026-04-22 13:45 | 33.32107 | -111.80926 | 10542 ft | 280 kts | 196° |
| 2026-04-22 13:45 | 33.30121 | -111.81482 | 10734 ft | 306 kts | 197° |
| 2026-04-22 13:45 | 33.27974 | -111.82089 | 10917 ft | 329 kts | 196° |
| 2026-04-22 13:46 | 33.25666 | -111.82727 | 11087 ft | 350 kts | 196° |
| 2026-04-22 13:46 | 33.23244 | -111.83380 | 11505 ft | 361 kts | 195° |
| 2026-04-22 13:46 | 33.20779 | -111.84034 | 12143 ft | 365 kts | 195° |
| 2026-04-22 13:46 | 33.18289 | -111.84692 | 12813 ft | 368 kts | 195° |
| 2026-04-22 13:47 | 33.15785 | -111.85403 | 13432 ft | 370 kts | 201° |
| 2026-04-22 13:47 | 33.13478 | -111.86733 | 14011 ft | 369 kts | 214° |
| 2026-04-22 13:47 | 33.11293 | -111.88366 | 14549 ft | 373 kts | 214° |
| 2026-04-22 13:47 | 33.09077 | -111.90009 | 15100 ft | 377 kts | 214° |
| 2026-04-22 13:48 | 33.06821 | -111.91645 | 15640 ft | 380 kts | 214° |
| 2026-04-22 13:48 | 33.04546 | -111.93273 | 16201 ft | 383 kts | 214° |
| 2026-04-22 13:48 | 33.02205 | -111.94762 | 16702 ft | 391 kts | 204° |
| 2026-04-22 13:48 | 32.99496 | -111.95390 | 17217 ft | 403 kts | 186° |
| 2026-04-22 13:49 | 32.96670 | -111.95048 | 17730 ft | 416 kts | 168° |
| 2026-04-22 13:49 | 32.93944 | -111.93781 | 18235 ft | 425 kts | 160° |
| 2026-04-22 13:49 | 32.91232 | -111.92316 | 18642 ft | 429 kts | 160° |
| 2026-04-22 13:49 | 32.88558 | -111.90667 | 19026 ft | 439 kts | 149° |
| 2026-04-22 13:50 | 32.87008 | -111.89089 | 19305 ft | 446 kts | 137° |
| 2026-04-22 13:50 | 32.84182 | -111.85440 | 19931 ft | 449 kts | 136° |
| 2026-04-22 13:50 | 32.82093 | -111.82716 | 20315 ft | 453 kts | 136° |
| 2026-04-22 13:50 | 32.79927 | -111.79908 | 20715 ft | 457 kts | 136° |
| 2026-04-22 13:51 | 32.77789 | -111.77158 | 21113 ft | 459 kts | 136° |
| 2026-04-22 13:51 | 32.75607 | -111.74370 | 21509 ft | 462 kts | 136° |
| 2026-04-22 13:51 | 32.73403 | -111.71568 | 21889 ft | 465 kts | 136° |
| 2026-04-22 13:51 | 32.71182 | -111.68753 | 22260 ft | 468 kts | 136° |
| 2026-04-22 13:52 | 32.68943 | -111.65922 | 22629 ft | 471 kts | 136° |
| 2026-04-22 13:52 | 32.66683 | -111.63067 | 22995 ft | 474 kts | 136° |
| 2026-04-22 13:52 | 32.64419 | -111.60209 | 23366 ft | 477 kts | 136° |
| 2026-04-22 13:52 | 32.62137 | -111.57329 | 23693 ft | 480 kts | 136° |
| 2026-04-22 13:53 | 32.59839 | -111.54431 | 23984 ft | 483 kts | 136° |
| 2026-04-22 13:53 | 32.57527 | -111.51517 | 24297 ft | 485 kts | 136° |
| 2026-04-22 13:53 | 32.55210 | -111.48599 | 24603 ft | 487 kts | 136° |
| 2026-04-22 13:53 | 32.52884 | -111.45672 | 24887 ft | 490 kts | 136° |
| 2026-04-22 13:54 | 32.50534 | -111.42717 | 25160 ft | 493 kts | 136° |
| 2026-04-22 13:54 | 32.48209 | -111.39796 | 25436 ft | 495 kts | 136° |
| 2026-04-22 13:54 | 32.45811 | -111.36787 | 25734 ft | 497 kts | 136° |
| 2026-04-22 13:54 | 32.43465 | -111.33844 | 26005 ft | 499 kts | 136° |
| 2026-04-22 13:55 | 32.41078 | -111.30852 | 26241 ft | 501 kts | 136° |
| 2026-04-22 13:55 | 32.38672 | -111.27840 | 26487 ft | 504 kts | 136° |
| 2026-04-22 13:55 | 32.36258 | -111.24819 | 26747 ft | 506 kts | 136° |
| 2026-04-22 13:55 | 32.33833 | -111.21788 | 27005 ft | 508 kts | 136° |
| 2026-04-22 13:56 | 32.32229 | -111.19783 | 27175 ft | 509 kts | 136° |
| 2026-04-22 13:56 | 32.29782 | -111.16729 | 27418 ft | 511 kts | 136° |
| 2026-04-22 13:56 | 32.27333 | -111.13675 | 27664 ft | 513 kts | 136° |
| 2026-04-22 13:56 | 32.24872 | -111.10607 | 27891 ft | 515 kts | 136° |
| 2026-04-22 13:57 | 32.22405 | -111.07535 | 28113 ft | 517 kts | 136° |
| 2026-04-22 13:57 | 32.19935 | -111.04459 | 28483 ft | 516 kts | 137° |
| 2026-04-22 13:57 | 32.17460 | -111.01380 | 28894 ft | 514 kts | 137° |
| 2026-04-22 13:57 | 32.15000 | -110.98322 | 29297 ft | 513 kts | 137° |
| 2026-04-22 13:58 | 32.12495 | -110.95344 | 29630 ft | 509 kts | 144° |
| 2026-04-22 13:58 | 32.09527 | -110.93162 | 29917 ft | 498 kts | 161° |
| 2026-04-22 13:58 | 32.06264 | -110.91920 | 30314 ft | 486 kts | 175° |
| 2026-04-22 13:58 | 32.02955 | -110.91606 | 30674 ft | 473 kts | 187° |
| 2026-04-22 13:59 | 31.99673 | -110.91757 | 30996 ft | 470 kts | 189° |
| 2026-04-22 13:59 | 31.96435 | -110.91963 | 31247 ft | 470 kts | 189° |
| 2026-04-22 13:59 | 31.93164 | -110.92177 | 31518 ft | 470 kts | 189° |
| 2026-04-22 13:59 | 31.89894 | -110.92375 | 31835 ft | 469 kts | 189° |
| 2026-04-22 14:00 | 31.86625 | -110.92553 | 32165 ft | 468 kts | 189° |
| 2026-04-22 14:00 | 31.83377 | -110.92714 | 32456 ft | 467 kts | 189° |
| 2026-04-22 14:00 | 31.80131 | -110.92866 | 32726 ft | 467 kts | 189° |
| 2026-04-22 14:00 | 31.76880 | -110.93014 | 33015 ft | 466 kts | 189° |
| 2026-04-22 14:01 | 31.73680 | -110.93159 | 33342 ft | 465 kts | 189° |
| 2026-04-22 14:01 | 31.70432 | -110.93305 | 33669 ft | 464 kts | 189° |
| 2026-04-22 14:01 | 31.67207 | -110.93452 | 33979 ft | 464 kts | 189° |
| 2026-04-22 14:01 | 31.63980 | -110.93599 | 34248 ft | 463 kts | 189° |
| 2026-04-22 14:02 | 31.60791 | -110.93745 | 34495 ft | 463 kts | 189° |
| 2026-04-22 14:02 | 31.57561 | -110.93893 | 34722 ft | 464 kts | 189° |
| 2026-04-22 14:02 | 31.54329 | -110.94041 | 34951 ft | 464 kts | 189° |
| 2026-04-22 14:02 | 31.51106 | -110.94188 | 35159 ft | 464 kts | 189° |
| 2026-04-22 14:03 | 31.44611 | -110.94486 | 35170 ft | 466 kts | 189° |
| 2026-04-22 14:03 | 31.38153 | -110.94778 | 35172 ft | 464 kts | 189° |
| 2026-04-22 14:04 | 31.31718 | -110.95071 | 35145 ft | 461 kts | 189° |
| 2026-04-22 14:04 | 31.25353 | -110.95363 | 35110 ft | 460 kts | 190° |
| 2026-04-22 14:05 | 31.18953 | -110.95657 | 35080 ft | 460 kts | 190° |
| 2026-04-22 14:06 | 31.09340 | -110.96099 | 35029 ft | 461 kts | 190° |
| 2026-04-22 14:06 | 31.02910 | -110.96394 | 35021 ft | 463 kts | 190° |
| 2026-04-22 14:07 | 30.96462 | -110.96689 | 35012 ft | 465 kts | 190° |
| 2026-04-22 14:07 | 30.89972 | -110.96984 | 34996 ft | 467 kts | 190° |
| 2026-04-22 14:08 | 30.83517 | -110.97277 | 35006 ft | 467 kts | 190° |
| 2026-04-22 14:08 | 30.76996 | -110.97584 | 34997 ft | 469 kts | 190° |
| 2026-04-22 14:09 | 30.70469 | -110.97912 | 35000 ft | 469 kts | 190° |
| 2026-04-22 14:09 | 30.63954 | -110.98237 | 35014 ft | 465 kts | 190° |
| 2026-04-22 14:10 | 30.57511 | -110.98562 | 35007 ft | 467 kts | 190° |
| 2026-04-22 14:10 | 30.51014 | -110.98886 | 35010 ft | 468 kts | 190° |
| 2026-04-22 14:11 | 30.44486 | -110.99182 | 35005 ft | 469 kts | 190° |
| 2026-04-22 14:11 | 30.37935 | -110.99460 | 35006 ft | 470 kts | 190° |
| 2026-04-22 14:12 | 30.31398 | -110.99739 | 35008 ft | 470 kts | 190° |
| 2026-04-22 14:12 | 30.24892 | -111.00020 | 35006 ft | 470 kts | 190° |
| 2026-04-22 14:13 | 30.18345 | -111.00304 | 35004 ft | 470 kts | 190° |
| 2026-04-22 14:13 | 30.11800 | -111.00587 | 35007 ft | 470 kts | 191° |
| 2026-04-22 14:14 | 30.05316 | -111.00881 | 35008 ft | 469 kts | 191° |
| 2026-04-22 14:14 | 29.98781 | -111.01187 | 35011 ft | 469 kts | 191° |
| 2026-04-22 14:15 | 29.92254 | -111.01491 | 35010 ft | 469 kts | 191° |
| 2026-04-22 14:15 | 29.85724 | -111.01793 | 35012 ft | 469 kts | 191° |
| 2026-04-22 14:16 | 29.79195 | -111.02094 | 35009 ft | 469 kts | 191° |
| 2026-04-22 14:16 | 29.72659 | -111.02395 | 35012 ft | 470 kts | 191° |
| 2026-04-22 14:17 | 29.66120 | -111.02696 | 35009 ft | 470 kts | 191° |
| 2026-04-22 14:17 | 29.59617 | -111.02995 | 35004 ft | 471 kts | 191° |
| 2026-04-22 14:18 | 29.53059 | -111.03288 | 35011 ft | 471 kts | 191° |
| 2026-04-22 14:18 | 29.46497 | -111.03577 | 35008 ft | 472 kts | 191° |
| 2026-04-22 14:19 | 29.39929 | -111.03866 | 35017 ft | 473 kts | 191° |
| 2026-04-22 14:19 | 29.33329 | -111.04158 | 35034 ft | 474 kts | 191° |
| 2026-04-22 14:20 | 29.23458 | -111.04591 | 35045 ft | 475 kts | 191° |
| 2026-04-22 14:20 | 29.16836 | -111.04883 | 35069 ft | 476 kts | 191° |
| 2026-04-22 14:21 | 29.06867 | -111.05056 | 35070 ft | 485 kts | 185° |
| 2026-04-22 14:22 | 28.96772 | -111.03842 | 35060 ft | 488 kts | 182° |
| 2026-04-22 14:23 | 28.86640 | -111.02659 | 35040 ft | 487 kts | 183° |
| 2026-04-22 14:23 | 28.79890 | -111.01925 | 35027 ft | 487 kts | 184° |
| 2026-04-22 14:24 | 28.73167 | -111.01188 | 35018 ft | 487 kts | 183° |
| 2026-04-22 14:24 | 28.66408 | -111.00445 | 35021 ft | 488 kts | 183° |
| 2026-04-22 14:25 | 28.59635 | -110.99703 | 35023 ft | 488 kts | 183° |
| 2026-04-22 14:25 | 28.52869 | -110.98961 | 35020 ft | 488 kts | 183° |
| 2026-04-22 14:26 | 28.46140 | -110.98224 | 35025 ft | 488 kts | 183° |
| 2026-04-22 14:26 | 28.39365 | -110.97483 | 35032 ft | 489 kts | 183° |
| 2026-04-22 14:27 | 28.32600 | -110.96744 | 35023 ft | 488 kts | 183° |
| 2026-04-22 14:27 | 28.25833 | -110.96002 | 35031 ft | 487 kts | 183° |
| 2026-04-22 14:28 | 28.19116 | -110.95265 | 35031 ft | 487 kts | 183° |
| 2026-04-22 14:28 | 28.12370 | -110.94525 | 35029 ft | 487 kts | 183° |
| 2026-04-22 14:29 | 28.05629 | -110.93787 | 35027 ft | 486 kts | 183° |
| 2026-04-22 14:29 | 27.98891 | -110.93050 | 35034 ft | 486 kts | 183° |
| 2026-04-22 14:30 | 27.92177 | -110.92230 | 35041 ft | 489 kts | 181° |
| 2026-04-22 14:30 | 27.85425 | -110.91180 | 35033 ft | 490 kts | 180° |
| 2026-04-22 14:31 | 27.78652 | -110.90104 | 35032 ft | 490 kts | 180° |
| 2026-04-22 14:31 | 27.71887 | -110.89062 | 35033 ft | 491 kts | 180° |
| 2026-04-22 14:32 | 27.65149 | -110.88046 | 35034 ft | 491 kts | 180° |
| 2026-04-22 14:32 | 27.58368 | -110.87028 | 35033 ft | 492 kts | 180° |
| 2026-04-22 14:33 | 27.51589 | -110.86010 | 35035 ft | 492 kts | 180° |
| 2026-04-22 14:33 | 27.44790 | -110.84989 | 35036 ft | 493 kts | 180° |
| 2026-04-22 14:34 | 27.37992 | -110.83968 | 35036 ft | 493 kts | 180° |
| 2026-04-22 14:34 | 27.31213 | -110.82952 | 35038 ft | 494 kts | 180° |
| 2026-04-22 14:35 | 27.24394 | -110.81932 | 35035 ft | 494 kts | 180° |
| 2026-04-22 14:35 | 27.17571 | -110.80912 | 35036 ft | 494 kts | 180° |
| 2026-04-22 14:36 | 27.10750 | -110.79894 | 35040 ft | 495 kts | 180° |
| 2026-04-22 14:36 | 27.03915 | -110.78874 | 35039 ft | 495 kts | 180° |
| 2026-04-22 14:37 | 26.97077 | -110.77856 | 35043 ft | 495 kts | 180° |
| 2026-04-22 14:37 | 26.90297 | -110.76847 | 35042 ft | 495 kts | 180° |
| 2026-04-22 14:38 | 26.83470 | -110.75833 | 35037 ft | 495 kts | 180° |
| 2026-04-22 14:38 | 26.76630 | -110.74818 | 35035 ft | 494 kts | 180° |
| 2026-04-22 14:39 | 26.69814 | -110.73808 | 35032 ft | 494 kts | 180° |
| 2026-04-22 14:39 | 26.62991 | -110.72798 | 35035 ft | 494 kts | 180° |
| 2026-04-22 14:40 | 26.52804 | -110.71292 | 35032 ft | 493 kts | 180° |
| 2026-04-22 14:40 | 26.45993 | -110.70285 | 35029 ft | 493 kts | 180° |
| 2026-04-22 14:41 | 26.39190 | -110.69281 | 35033 ft | 493 kts | 179° |
| 2026-04-22 14:41 | 26.32385 | -110.68278 | 35037 ft | 494 kts | 179° |
| 2026-04-22 14:42 | 26.25517 | -110.67270 | 35041 ft | 501 kts | 179° |
| 2026-04-22 14:42 | 26.18619 | -110.66256 | 35028 ft | 504 kts | 179° |
| 2026-04-22 14:43 | 26.11667 | -110.65232 | 35034 ft | 504 kts | 179° |
| 2026-04-22 14:43 | 26.04708 | -110.64209 | 35029 ft | 504 kts | 179° |
| 2026-04-22 14:44 | 25.98877 | -110.63353 | 35028 ft | 504 kts | 179° |
| 2026-04-22 14:44 | 25.91966 | -110.62341 | 35027 ft | 503 kts | 179° |
| 2026-04-22 14:45 | 25.85021 | -110.61325 | 35033 ft | 503 kts | 179° |
| 2026-04-22 14:45 | 25.78082 | -110.60311 | 35029 ft | 502 kts | 179° |
| 2026-04-22 14:46 | 25.71150 | -110.59300 | 35029 ft | 502 kts | 179° |
| 2026-04-22 14:46 | 25.64270 | -110.58297 | 35033 ft | 501 kts | 179° |
| 2026-04-22 14:47 | 25.57347 | -110.57289 | 35036 ft | 501 kts | 179° |
| 2026-04-22 14:47 | 25.50428 | -110.56283 | 35038 ft | 501 kts | 179° |
| 2026-04-22 14:48 | 25.43552 | -110.55284 | 35036 ft | 501 kts | 179° |
| 2026-04-22 14:48 | 25.36639 | -110.54281 | 35035 ft | 501 kts | 179° |
| 2026-04-22 14:49 | 25.29786 | -110.52769 | 35036 ft | 512 kts | 163° |
| 2026-04-22 14:49 | 25.26577 | -110.51011 | 35046 ft | 519 kts | 151° |
| 2026-04-22 14:49 | 25.23691 | -110.48569 | 35033 ft | 525 kts | 138° |
| 2026-04-22 14:50 | 25.18678 | -110.42744 | 35040 ft | 527 kts | 135° |
| 2026-04-22 14:50 | 25.13697 | -110.36796 | 35038 ft | 527 kts | 135° |
| 2026-04-22 14:51 | 25.08651 | -110.30898 | 35035 ft | 527 kts | 136° |
| 2026-04-22 14:51 | 25.03585 | -110.25067 | 35039 ft | 527 kts | 136° |
| 2026-04-22 14:52 | 24.98533 | -110.19276 | 35045 ft | 526 kts | 136° |
| 2026-04-22 14:52 | 24.93458 | -110.13460 | 35045 ft | 526 kts | 136° |
| 2026-04-22 14:53 | 24.88383 | -110.07644 | 35042 ft | 526 kts | 136° |
| 2026-04-22 14:53 | 24.83308 | -110.01834 | 35041 ft | 526 kts | 136° |
| 2026-04-22 14:54 | 24.78228 | -109.96026 | 35045 ft | 525 kts | 136° |
| 2026-04-22 14:54 | 24.73148 | -109.90226 | 35041 ft | 525 kts | 136° |
| 2026-04-22 14:55 | 24.68103 | -109.84473 | 35007 ft | 526 kts | 136° |
| 2026-04-22 14:55 | 24.65542 | -109.81556 | 34405 ft | 532 kts | 136° |
| 2026-04-22 14:55 | 24.62968 | -109.78626 | 33705 ft | 531 kts | 136° |
| 2026-04-22 14:56 | 24.60401 | -109.75705 | 32813 ft | 530 kts | 136° |
| 2026-04-22 14:56 | 24.57844 | -109.72796 | 32030 ft | 527 kts | 136° |
| 2026-04-22 14:56 | 24.55298 | -109.69902 | 31248 ft | 525 kts | 136° |
| 2026-04-22 14:56 | 24.52758 | -109.67016 | 30434 ft | 525 kts | 136° |
| 2026-04-22 14:57 | 24.50217 | -109.64133 | 29507 ft | 526 kts | 136° |
| 2026-04-22 14:57 | 24.47703 | -109.61281 | 28567 ft | 525 kts | 136° |
| 2026-04-22 14:57 | 24.45166 | -109.58406 | 27608 ft | 524 kts | 136° |
| 2026-04-22 14:57 | 24.42619 | -109.55518 | 26770 ft | 522 kts | 136° |
| 2026-04-22 14:58 | 24.40096 | -109.52660 | 26121 ft | 517 kts | 136° |
| 2026-04-22 14:58 | 24.37616 | -109.49852 | 25445 ft | 509 kts | 136° |
| 2026-04-22 14:58 | 24.35098 | -109.47152 | 24780 ft | 501 kts | 144° |
| 2026-04-22 14:58 | 24.32138 | -109.45247 | 24141 ft | 488 kts | 162° |
| 2026-04-22 14:59 | 24.28944 | -109.44284 | 23504 ft | 476 kts | 174° |
| 2026-04-22 14:59 | 24.25687 | -109.44078 | 22792 ft | 464 kts | 187° |
| 2026-04-22 14:59 | 24.22543 | -109.44642 | 22140 ft | 452 kts | 197° |
| 2026-04-22 14:59 | 24.19507 | -109.45448 | 21474 ft | 446 kts | 197° |
| 2026-04-22 15:00 | 24.16509 | -109.46271 | 20828 ft | 441 kts | 197° |
| 2026-04-22 15:00 | 24.13541 | -109.47077 | 20190 ft | 436 kts | 197° |
| 2026-04-22 15:00 | 24.10607 | -109.47854 | 19562 ft | 431 kts | 197° |
| 2026-04-22 15:00 | 24.07734 | -109.48599 | 18921 ft | 427 kts | 197° |
| 2026-04-22 15:01 | 24.04846 | -109.49338 | 18283 ft | 424 kts | 196° |
| 2026-04-22 15:01 | 24.01980 | -109.50067 | 17561 ft | 419 kts | 196° |
| 2026-04-22 15:01 | 23.99156 | -109.50785 | 16911 ft | 414 kts | 196° |
| 2026-04-22 15:01 | 23.96354 | -109.51498 | 16223 ft | 411 kts | 196° |
| 2026-04-22 15:02 | 23.93582 | -109.52203 | 15594 ft | 406 kts | 196° |
| 2026-04-22 15:02 | 23.90818 | -109.52826 | 14986 ft | 405 kts | 188° |
| 2026-04-22 15:02 | 23.88064 | -109.52728 | 14715 ft | 398 kts | 176° |
| 2026-04-22 15:02 | 23.85303 | -109.52372 | 14404 ft | 391 kts | 176° |
| 2026-04-22 15:03 | 23.82631 | -109.52012 | 14154 ft | 396 kts | 176° |
| 2026-04-22 15:03 | 23.79873 | -109.51649 | 13860 ft | 400 kts | 176° |
| 2026-04-22 15:03 | 23.77101 | -109.51296 | 13549 ft | 398 kts | 176° |
| 2026-04-22 15:03 | 23.74358 | -109.50954 | 13248 ft | 393 kts | 176° |
| 2026-04-22 15:04 | 23.71647 | -109.50623 | 12968 ft | 389 kts | 176° |
| 2026-04-22 15:04 | 23.68992 | -109.50303 | 12699 ft | 386 kts | 176° |
| 2026-04-22 15:04 | 23.66327 | -109.49983 | 12428 ft | 384 kts | 176° |
| 2026-04-22 15:04 | 23.63680 | -109.49666 | 12161 ft | 382 kts | 176° |
| 2026-04-22 15:05 | 23.61044 | -109.49351 | 11894 ft | 379 kts | 177° |
| 2026-04-22 15:05 | 23.58448 | -109.49039 | 11626 ft | 369 kts | 177° |
| 2026-04-22 15:05 | 23.55932 | -109.48736 | 11365 ft | 358 kts | 177° |
| 2026-04-22 15:05 | 23.53490 | -109.48443 | 11125 ft | 348 kts | 177° |
| 2026-04-22 15:06 | 23.51138 | -109.48162 | 10885 ft | 339 kts | 178° |
| 2026-04-22 15:06 | 23.48841 | -109.48225 | 10628 ft | 324 kts | 194° |
| 2026-04-22 15:06 | 23.46679 | -109.48761 | 10442 ft | 314 kts | 197° |
| 2026-04-22 15:06 | 23.44574 | -109.49321 | 10219 ft | 307 kts | 197° |
| 2026-04-22 15:07 | 23.42516 | -109.49867 | 10001 ft | 300 kts | 197° |
| 2026-04-22 15:07 | 23.40511 | -109.50390 | 9932 ft | 289 kts | 197° |
| 2026-04-22 15:07 | 23.38615 | -109.50876 | 9901 ft | 271 kts | 197° |
| 2026-04-22 15:07 | 23.36785 | -109.51342 | 9501 ft | 274 kts | 197° |
| 2026-04-22 15:08 | 23.34945 | -109.51810 | 9235 ft | 270 kts | 196° |
| 2026-04-22 15:08 | 23.33131 | -109.52270 | 9031 ft | 265 kts | 196° |
| 2026-04-22 15:08 | 23.31357 | -109.52718 | 8838 ft | 260 kts | 196° |
| 2026-04-22 15:08 | 23.29626 | -109.53154 | 8667 ft | 257 kts | 196° |
| 2026-04-22 15:09 | 23.27878 | -109.53595 | 8486 ft | 257 kts | 196° |
| 2026-04-22 15:09 | 23.26135 | -109.54033 | 8307 ft | 257 kts | 195° |
| 2026-04-22 15:09 | 23.24392 | -109.54472 | 8131 ft | 257 kts | 195° |
| 2026-04-22 15:09 | 23.22647 | -109.54910 | 7925 ft | 259 kts | 195° |
| 2026-04-22 15:10 | 23.20879 | -109.55355 | 7677 ft | 262 kts | 195° |
| 2026-04-22 15:10 | 23.19090 | -109.55803 | 7425 ft | 265 kts | 195° |
| 2026-04-22 15:10 | 23.17293 | -109.56253 | 7156 ft | 264 kts | 195° |
| 2026-04-22 15:10 | 23.15508 | -109.56700 | 6890 ft | 262 kts | 195° |
| 2026-04-22 15:11 | 23.13735 | -109.57144 | 6624 ft | 261 kts | 195° |
| 2026-04-22 15:11 | 23.11983 | -109.57582 | 6353 ft | 260 kts | 194° |
| 2026-04-22 15:11 | 23.10223 | -109.58022 | 6088 ft | 258 kts | 194° |
| 2026-04-22 15:11 | 23.08474 | -109.58460 | 5830 ft | 258 kts | 194° |
| 2026-04-22 15:12 | 23.06724 | -109.58897 | 5545 ft | 257 kts | 194° |
| 2026-04-22 15:12 | 23.04983 | -109.59333 | 5287 ft | 256 kts | 194° |
| 2026-04-22 15:12 | 23.03257 | -109.59765 | 5033 ft | 254 kts | 194° |
| 2026-04-22 15:12 | 23.01536 | -109.60195 | 4778 ft | 253 kts | 194° |
| 2026-04-22 15:13 | 22.99850 | -109.60700 | 4498 ft | 251 kts | 206° |
| 2026-04-22 15:13 | 22.98529 | -109.61888 | 4237 ft | 248 kts | 235° |
| 2026-04-22 15:13 | 22.97845 | -109.63588 | 3948 ft | 248 kts | 257° |
| 2026-04-22 15:13 | 22.97595 | -109.65414 | 3708 ft | 247 kts | 263° |
| 2026-04-22 15:14 | 22.97513 | -109.67279 | 3430 ft | 248 kts | 278° |
| 2026-04-22 15:14 | 22.98155 | -109.68968 | 3159 ft | 239 kts | 309° |
| 2026-04-22 15:14 | 22.99395 | -109.70047 | 2911 ft | 222 kts | 336° |
| 2026-04-22 15:14 | 23.00833 | -109.70490 | 2735 ft | 208 kts | 353° |
| 2026-04-22 15:15 | 23.02230 | -109.70657 | 2527 ft | 196 kts | 356° |
| 2026-04-22 15:15 | 23.03547 | -109.70771 | 2324 ft | 183 kts | 356° |
| 2026-04-22 15:15 | 23.04774 | -109.70892 | 2152 ft | 169 kts | 355° |
| 2026-04-22 15:15 | 23.05895 | -109.71017 | 1999 ft | 161 kts | 355° |
| 2026-04-22 15:16 | 23.07008 | -109.71143 | 1762 ft | 159 kts | 355° |
| 2026-04-22 15:16 | 23.08096 | -109.71268 | 1539 ft | 155 kts | 355° |
| 2026-04-22 15:16 | 23.09169 | -109.71389 | 1339 ft | 155 kts | 354° |
| 2026-04-22 15:16 | 23.10233 | -109.71510 | 1127 ft | 156 kts | 353° |
| 2026-04-22 15:17 | 23.11290 | -109.71631 | 943 ft | 150 kts | 353° |
| 2026-04-22 15:17 | 23.12325 | -109.71750 | 695 ft | 149 kts | 352° |
| 2026-04-22 15:17 | 23.13350 | -109.71864 | 448 ft | 147 kts | 353° |
| 2026-04-22 15:17 | 23.14340 | -109.71982 | 337 ft | 135 kts | 353° |
| 2026-04-22 15:18 | 23.15181 | -109.72074 | 358 ft | 105 kts | 355° |
| 2026-04-22 15:18 | 23.15755 | -109.72137 | 369 ft | 44 kts | 356° |
| 2026-04-22 15:18 | 23.15907 | -109.72086 | 372 ft | 17 kts | 25° |
| 2026-04-22 15:18 | 23.15996 | -109.72041 | 374 ft | 13 kts | 24° |
| 2026-04-22 15:19 | 23.16050 | -109.71984 | 375 ft | 11 kts | 101° |
| 2026-04-22 15:19 | 23.15984 | -109.71957 | 374 ft | 11 kts | 174° |
| 2026-04-22 15:19 | 23.15907 | -109.71948 | 372 ft | 11 kts | 174° |
| 2026-04-22 15:19 | 23.15824 | -109.71939 | 370 ft | 12 kts | 174° |
| 2026-04-22 15:20 | 23.15766 | -109.71933 | 369 ft | 13 kts | 174° |
| 2026-04-22 15:20 | 23.15658 | -109.71922 | 366 ft | 1 kts | 174° |
| 2026-04-22 15:20 | 23.15645 | -109.71920 | 367 ft | 3 kts | 174° |
| 2026-04-22 15:20 | 23.15611 | -109.71900 | 365 ft | 7 kts | 120° |
| 2026-04-22 15:21 | 23.15608 | -109.71875 | 366 ft | 3 kts | 89° |
| 2026-04-22 15:21 | 23.15606 | -109.71852 | 365 ft | 4 kts | 103° |
| 2026-04-22 15:21 | 23.15596 | -109.71805 | 370 ft | 8 kts | 92° |
| 2026-04-22 15:21 | 23.15598 | -109.71764 | 370 ft | 3 kts | 84° |
| 2026-04-22 15:22 | 23.15600 | -109.71749 | 370 ft | 0 kts | 85° |